<?xml version="1.0" encoding="UTF-8" standalone="no" ?>
<gpx xmlns="http://www.topografix.com/GPX/1/1" xmlns:xsi="http://www.w3.org/2001/XMLSchema-instance" xsi:schemaLocation="http://www.topografix.com/GPX/1/1 http://www.topografix.com/GPX/1/1/gpx.xsd" version="1.1" creator="VisuGPX - https://www.visugpx.com">
  <metadata>
    <name>Descente du col de Tençon</name>
    <desc><![CDATA[Sûrement le meilleur choix de descente]]></desc>
  </metadata>
  <trk>
    <name><![CDATA[20110512-3]]></name>
    <trkseg>
      <trkpt lat="45.2917" lon="5.63417">
        <ele>246</ele>
        <time>2011-05-12T10:10:29Z</time>
      </trkpt>
      <trkpt lat="45.29162" lon="5.63435">
        <ele>225</ele>
        <time>2011-05-12T10:10:39Z</time>
      </trkpt>
      <trkpt lat="45.29162" lon="5.63451">
        <ele>210</ele>
        <time>2011-05-12T10:18:59Z</time>
      </trkpt>
      <trkpt lat="45.29162" lon="5.63466">
        <ele>210</ele>
        <time>2011-05-12T10:19:04Z</time>
      </trkpt>
      <trkpt lat="45.29166" lon="5.63478">
        <ele>210</ele>
        <time>2011-05-12T10:19:09Z</time>
      </trkpt>
      <trkpt lat="45.29174" lon="5.63484">
        <ele>211</ele>
        <time>2011-05-12T10:19:14Z</time>
      </trkpt>
      <trkpt lat="45.29188" lon="5.63488">
        <ele>211</ele>
        <time>2011-05-12T10:19:19Z</time>
      </trkpt>
      <trkpt lat="45.29199" lon="5.6349">
        <ele>211</ele>
        <time>2011-05-12T10:19:24Z</time>
      </trkpt>
      <trkpt lat="45.29207" lon="5.63496">
        <ele>211</ele>
        <time>2011-05-12T10:19:34Z</time>
      </trkpt>
      <trkpt lat="45.29218" lon="5.63497">
        <ele>217</ele>
        <time>2011-05-12T10:21:09Z</time>
      </trkpt>
      <trkpt lat="45.29231" lon="5.63498">
        <ele>217</ele>
        <time>2011-05-12T10:21:14Z</time>
      </trkpt>
      <trkpt lat="45.29245" lon="5.63499">
        <ele>217</ele>
        <time>2011-05-12T10:21:19Z</time>
      </trkpt>
      <trkpt lat="45.29259" lon="5.63502">
        <ele>217</ele>
        <time>2011-05-12T10:21:24Z</time>
      </trkpt>
      <trkpt lat="45.29273" lon="5.63505">
        <ele>216</ele>
        <time>2011-05-12T10:21:29Z</time>
      </trkpt>
      <trkpt lat="45.29288" lon="5.63514">
        <ele>216</ele>
        <time>2011-05-12T10:21:34Z</time>
      </trkpt>
      <trkpt lat="45.293" lon="5.63529">
        <ele>217</ele>
        <time>2011-05-12T10:21:39Z</time>
      </trkpt>
      <trkpt lat="45.29311" lon="5.63545">
        <ele>217</ele>
        <time>2011-05-12T10:21:44Z</time>
      </trkpt>
      <trkpt lat="45.29318" lon="5.6356">
        <ele>217</ele>
        <time>2011-05-12T10:21:49Z</time>
      </trkpt>
      <trkpt lat="45.29321" lon="5.63583">
        <ele>216</ele>
        <time>2011-05-12T10:21:54Z</time>
      </trkpt>
      <trkpt lat="45.29325" lon="5.63605">
        <ele>216</ele>
        <time>2011-05-12T10:21:59Z</time>
      </trkpt>
      <trkpt lat="45.29339" lon="5.6361">
        <ele>216</ele>
        <time>2011-05-12T10:22:04Z</time>
      </trkpt>
      <trkpt lat="45.29354" lon="5.63605">
        <ele>216</ele>
        <time>2011-05-12T10:22:09Z</time>
      </trkpt>
      <trkpt lat="45.29369" lon="5.63602">
        <ele>217</ele>
        <time>2011-05-12T10:22:14Z</time>
      </trkpt>
      <trkpt lat="45.29383" lon="5.63598">
        <ele>218</ele>
        <time>2011-05-12T10:22:19Z</time>
      </trkpt>
      <trkpt lat="45.29398" lon="5.63595">
        <ele>219</ele>
        <time>2011-05-12T10:22:24Z</time>
      </trkpt>
      <trkpt lat="45.29412" lon="5.63591">
        <ele>220</ele>
        <time>2011-05-12T10:22:29Z</time>
      </trkpt>
      <trkpt lat="45.29427" lon="5.63586">
        <ele>220</ele>
        <time>2011-05-12T10:22:34Z</time>
      </trkpt>
      <trkpt lat="45.29441" lon="5.63582">
        <ele>220</ele>
        <time>2011-05-12T10:22:39Z</time>
      </trkpt>
      <trkpt lat="45.29455" lon="5.63579">
        <ele>222</ele>
        <time>2011-05-12T10:22:44Z</time>
      </trkpt>
      <trkpt lat="45.29469" lon="5.63576">
        <ele>223</ele>
        <time>2011-05-12T10:22:49Z</time>
      </trkpt>
      <trkpt lat="45.29482" lon="5.63576">
        <ele>224</ele>
        <time>2011-05-12T10:22:54Z</time>
      </trkpt>
      <trkpt lat="45.29496" lon="5.63578">
        <ele>225</ele>
        <time>2011-05-12T10:22:59Z</time>
      </trkpt>
      <trkpt lat="45.2951" lon="5.6358">
        <ele>227</ele>
        <time>2011-05-12T10:23:04Z</time>
      </trkpt>
      <trkpt lat="45.29523" lon="5.63583">
        <ele>228</ele>
        <time>2011-05-12T10:23:09Z</time>
      </trkpt>
      <trkpt lat="45.29535" lon="5.63584">
        <ele>229</ele>
        <time>2011-05-12T10:23:14Z</time>
      </trkpt>
      <trkpt lat="45.29548" lon="5.63585">
        <ele>230</ele>
        <time>2011-05-12T10:23:19Z</time>
      </trkpt>
      <trkpt lat="45.29561" lon="5.63586">
        <ele>230</ele>
        <time>2011-05-12T10:23:24Z</time>
      </trkpt>
      <trkpt lat="45.29574" lon="5.63589">
        <ele>231</ele>
        <time>2011-05-12T10:23:29Z</time>
      </trkpt>
      <trkpt lat="45.29586" lon="5.63593">
        <ele>232</ele>
        <time>2011-05-12T10:23:34Z</time>
      </trkpt>
      <trkpt lat="45.29599" lon="5.63595">
        <ele>232</ele>
        <time>2011-05-12T10:23:39Z</time>
      </trkpt>
      <trkpt lat="45.29612" lon="5.63598">
        <ele>233</ele>
        <time>2011-05-12T10:23:44Z</time>
      </trkpt>
      <trkpt lat="45.29625" lon="5.63601">
        <ele>235</ele>
        <time>2011-05-12T10:23:49Z</time>
      </trkpt>
      <trkpt lat="45.29639" lon="5.63603">
        <ele>237</ele>
        <time>2011-05-12T10:23:54Z</time>
      </trkpt>
      <trkpt lat="45.29648" lon="5.63603">
        <ele>238</ele>
        <time>2011-05-12T10:23:59Z</time>
      </trkpt>
      <trkpt lat="45.29662" lon="5.63589">
        <ele>238</ele>
        <time>2011-05-12T10:24:14Z</time>
      </trkpt>
      <trkpt lat="45.29677" lon="5.63574">
        <ele>239</ele>
        <time>2011-05-12T10:24:19Z</time>
      </trkpt>
      <trkpt lat="45.29697" lon="5.63556">
        <ele>240</ele>
        <time>2011-05-12T10:24:24Z</time>
      </trkpt>
      <trkpt lat="45.29716" lon="5.63549">
        <ele>243</ele>
        <time>2011-05-12T10:24:29Z</time>
      </trkpt>
      <trkpt lat="45.2973" lon="5.63562">
        <ele>246</ele>
        <time>2011-05-12T10:24:34Z</time>
      </trkpt>
      <trkpt lat="45.29739" lon="5.63575">
        <ele>250</ele>
        <time>2011-05-12T10:24:39Z</time>
      </trkpt>
      <trkpt lat="45.29747" lon="5.63588">
        <ele>251</ele>
        <time>2011-05-12T10:24:44Z</time>
      </trkpt>
      <trkpt lat="45.29757" lon="5.63605">
        <ele>248</ele>
        <time>2011-05-12T10:24:49Z</time>
      </trkpt>
      <trkpt lat="45.29767" lon="5.63623">
        <ele>248</ele>
        <time>2011-05-12T10:24:54Z</time>
      </trkpt>
      <trkpt lat="45.29778" lon="5.63639">
        <ele>248</ele>
        <time>2011-05-12T10:24:59Z</time>
      </trkpt>
      <trkpt lat="45.29791" lon="5.6365">
        <ele>247</ele>
        <time>2011-05-12T10:25:04Z</time>
      </trkpt>
      <trkpt lat="45.29805" lon="5.6366">
        <ele>249</ele>
        <time>2011-05-12T10:25:09Z</time>
      </trkpt>
      <trkpt lat="45.29819" lon="5.63671">
        <ele>249</ele>
        <time>2011-05-12T10:25:14Z</time>
      </trkpt>
      <trkpt lat="45.29827" lon="5.63688">
        <ele>249</ele>
        <time>2011-05-12T10:25:19Z</time>
      </trkpt>
      <trkpt lat="45.29836" lon="5.63705">
        <ele>250</ele>
        <time>2011-05-12T10:25:24Z</time>
      </trkpt>
      <trkpt lat="45.29844" lon="5.63723">
        <ele>251</ele>
        <time>2011-05-12T10:25:29Z</time>
      </trkpt>
      <trkpt lat="45.29851" lon="5.6374">
        <ele>251</ele>
        <time>2011-05-12T10:25:34Z</time>
      </trkpt>
      <trkpt lat="45.29859" lon="5.63757">
        <ele>252</ele>
        <time>2011-05-12T10:25:39Z</time>
      </trkpt>
      <trkpt lat="45.29868" lon="5.63773">
        <ele>253</ele>
        <time>2011-05-12T10:25:44Z</time>
      </trkpt>
      <trkpt lat="45.29878" lon="5.63787">
        <ele>254</ele>
        <time>2011-05-12T10:25:49Z</time>
      </trkpt>
      <trkpt lat="45.2989" lon="5.63798">
        <ele>255</ele>
        <time>2011-05-12T10:25:54Z</time>
      </trkpt>
      <trkpt lat="45.29903" lon="5.63804">
        <ele>256</ele>
        <time>2011-05-12T10:25:59Z</time>
      </trkpt>
      <trkpt lat="45.29917" lon="5.63808">
        <ele>257</ele>
        <time>2011-05-12T10:26:04Z</time>
      </trkpt>
      <trkpt lat="45.29931" lon="5.63809">
        <ele>258</ele>
        <time>2011-05-12T10:26:09Z</time>
      </trkpt>
      <trkpt lat="45.29944" lon="5.6381">
        <ele>259</ele>
        <time>2011-05-12T10:26:14Z</time>
      </trkpt>
      <trkpt lat="45.29957" lon="5.63811">
        <ele>258</ele>
        <time>2011-05-12T10:26:19Z</time>
      </trkpt>
      <trkpt lat="45.29971" lon="5.63811">
        <ele>257</ele>
        <time>2011-05-12T10:26:24Z</time>
      </trkpt>
      <trkpt lat="45.29985" lon="5.63808">
        <ele>256</ele>
        <time>2011-05-12T10:26:29Z</time>
      </trkpt>
      <trkpt lat="45.29998" lon="5.63805">
        <ele>256</ele>
        <time>2011-05-12T10:26:34Z</time>
      </trkpt>
      <trkpt lat="45.30011" lon="5.63802">
        <ele>256</ele>
        <time>2011-05-12T10:26:39Z</time>
      </trkpt>
      <trkpt lat="45.30024" lon="5.638">
        <ele>259</ele>
        <time>2011-05-12T10:26:44Z</time>
      </trkpt>
      <trkpt lat="45.30037" lon="5.63802">
        <ele>259</ele>
        <time>2011-05-12T10:26:49Z</time>
      </trkpt>
      <trkpt lat="45.30049" lon="5.63803">
        <ele>261</ele>
        <time>2011-05-12T10:26:54Z</time>
      </trkpt>
      <trkpt lat="45.30061" lon="5.63806">
        <ele>262</ele>
        <time>2011-05-12T10:26:59Z</time>
      </trkpt>
      <trkpt lat="45.30074" lon="5.63809">
        <ele>263</ele>
        <time>2011-05-12T10:27:04Z</time>
      </trkpt>
      <trkpt lat="45.30086" lon="5.63812">
        <ele>264</ele>
        <time>2011-05-12T10:27:09Z</time>
      </trkpt>
      <trkpt lat="45.30098" lon="5.63814">
        <ele>265</ele>
        <time>2011-05-12T10:27:14Z</time>
      </trkpt>
      <trkpt lat="45.3011" lon="5.63815">
        <ele>268</ele>
        <time>2011-05-12T10:27:19Z</time>
      </trkpt>
      <trkpt lat="45.30123" lon="5.63816">
        <ele>270</ele>
        <time>2011-05-12T10:27:24Z</time>
      </trkpt>
      <trkpt lat="45.30136" lon="5.63818">
        <ele>271</ele>
        <time>2011-05-12T10:27:29Z</time>
      </trkpt>
      <trkpt lat="45.30148" lon="5.6382">
        <ele>272</ele>
        <time>2011-05-12T10:27:34Z</time>
      </trkpt>
      <trkpt lat="45.30161" lon="5.63822">
        <ele>274</ele>
        <time>2011-05-12T10:27:39Z</time>
      </trkpt>
      <trkpt lat="45.30173" lon="5.63825">
        <ele>275</ele>
        <time>2011-05-12T10:27:44Z</time>
      </trkpt>
      <trkpt lat="45.30185" lon="5.63828">
        <ele>276</ele>
        <time>2011-05-12T10:27:49Z</time>
      </trkpt>
      <trkpt lat="45.30198" lon="5.63832">
        <ele>277</ele>
        <time>2011-05-12T10:27:54Z</time>
      </trkpt>
      <trkpt lat="45.30209" lon="5.63836">
        <ele>279</ele>
        <time>2011-05-12T10:27:59Z</time>
      </trkpt>
      <trkpt lat="45.30221" lon="5.63841">
        <ele>280</ele>
        <time>2011-05-12T10:28:04Z</time>
      </trkpt>
      <trkpt lat="45.30233" lon="5.63845">
        <ele>281</ele>
        <time>2011-05-12T10:28:09Z</time>
      </trkpt>
      <trkpt lat="45.30245" lon="5.63851">
        <ele>282</ele>
        <time>2011-05-12T10:28:14Z</time>
      </trkpt>
      <trkpt lat="45.30257" lon="5.63856">
        <ele>284</ele>
        <time>2011-05-12T10:28:19Z</time>
      </trkpt>
      <trkpt lat="45.3027" lon="5.63861">
        <ele>285</ele>
        <time>2011-05-12T10:28:24Z</time>
      </trkpt>
      <trkpt lat="45.30282" lon="5.63866">
        <ele>286</ele>
        <time>2011-05-12T10:28:29Z</time>
      </trkpt>
      <trkpt lat="45.30295" lon="5.63872">
        <ele>287</ele>
        <time>2011-05-12T10:28:34Z</time>
      </trkpt>
      <trkpt lat="45.30307" lon="5.63878">
        <ele>288</ele>
        <time>2011-05-12T10:28:39Z</time>
      </trkpt>
      <trkpt lat="45.30319" lon="5.63885">
        <ele>289</ele>
        <time>2011-05-12T10:28:44Z</time>
      </trkpt>
      <trkpt lat="45.3033" lon="5.63894">
        <ele>289</ele>
        <time>2011-05-12T10:28:49Z</time>
      </trkpt>
      <trkpt lat="45.30339" lon="5.63905">
        <ele>290</ele>
        <time>2011-05-12T10:28:54Z</time>
      </trkpt>
      <trkpt lat="45.30349" lon="5.63916">
        <ele>291</ele>
        <time>2011-05-12T10:28:59Z</time>
      </trkpt>
      <trkpt lat="45.30362" lon="5.6392">
        <ele>292</ele>
        <time>2011-05-12T10:29:04Z</time>
      </trkpt>
      <trkpt lat="45.30374" lon="5.63912">
        <ele>294</ele>
        <time>2011-05-12T10:29:09Z</time>
      </trkpt>
      <trkpt lat="45.30378" lon="5.63896">
        <ele>293</ele>
        <time>2011-05-12T10:29:14Z</time>
      </trkpt>
      <trkpt lat="45.30372" lon="5.6388">
        <ele>297</ele>
        <time>2011-05-12T10:29:19Z</time>
      </trkpt>
      <trkpt lat="45.3036" lon="5.63873">
        <ele>299</ele>
        <time>2011-05-12T10:29:24Z</time>
      </trkpt>
      <trkpt lat="45.30346" lon="5.63866">
        <ele>302</ele>
        <time>2011-05-12T10:29:29Z</time>
      </trkpt>
      <trkpt lat="45.30333" lon="5.63854">
        <ele>304</ele>
        <time>2011-05-12T10:29:34Z</time>
      </trkpt>
      <trkpt lat="45.30329" lon="5.63835">
        <ele>304</ele>
        <time>2011-05-12T10:29:39Z</time>
      </trkpt>
      <trkpt lat="45.3033" lon="5.63813">
        <ele>304</ele>
        <time>2011-05-12T10:29:44Z</time>
      </trkpt>
      <trkpt lat="45.30329" lon="5.63794">
        <ele>302</ele>
        <time>2011-05-12T10:29:49Z</time>
      </trkpt>
      <trkpt lat="45.30327" lon="5.63774">
        <ele>301</ele>
        <time>2011-05-12T10:29:54Z</time>
      </trkpt>
      <trkpt lat="45.30323" lon="5.63754">
        <ele>302</ele>
        <time>2011-05-12T10:29:59Z</time>
      </trkpt>
      <trkpt lat="45.30319" lon="5.63732">
        <ele>303</ele>
        <time>2011-05-12T10:30:04Z</time>
      </trkpt>
      <trkpt lat="45.30314" lon="5.63714">
        <ele>305</ele>
        <time>2011-05-12T10:30:09Z</time>
      </trkpt>
      <trkpt lat="45.30305" lon="5.63697">
        <ele>307</ele>
        <time>2011-05-12T10:30:14Z</time>
      </trkpt>
      <trkpt lat="45.30294" lon="5.63683">
        <ele>307</ele>
        <time>2011-05-12T10:30:19Z</time>
      </trkpt>
      <trkpt lat="45.30287" lon="5.63664">
        <ele>308</ele>
        <time>2011-05-12T10:30:24Z</time>
      </trkpt>
      <trkpt lat="45.30284" lon="5.63646">
        <ele>308</ele>
        <time>2011-05-12T10:30:29Z</time>
      </trkpt>
      <trkpt lat="45.30279" lon="5.6363">
        <ele>308</ele>
        <time>2011-05-12T10:30:34Z</time>
      </trkpt>
      <trkpt lat="45.30268" lon="5.63617">
        <ele>311</ele>
        <time>2011-05-12T10:30:39Z</time>
      </trkpt>
      <trkpt lat="45.30254" lon="5.6361">
        <ele>314</ele>
        <time>2011-05-12T10:30:44Z</time>
      </trkpt>
      <trkpt lat="45.30239" lon="5.63607">
        <ele>318</ele>
        <time>2011-05-12T10:30:49Z</time>
      </trkpt>
      <trkpt lat="45.30224" lon="5.63602">
        <ele>321</ele>
        <time>2011-05-12T10:30:54Z</time>
      </trkpt>
      <trkpt lat="45.3021" lon="5.63597">
        <ele>323</ele>
        <time>2011-05-12T10:30:59Z</time>
      </trkpt>
      <trkpt lat="45.30197" lon="5.6359">
        <ele>324</ele>
        <time>2011-05-12T10:31:04Z</time>
      </trkpt>
      <trkpt lat="45.30185" lon="5.63578">
        <ele>324</ele>
        <time>2011-05-12T10:31:09Z</time>
      </trkpt>
      <trkpt lat="45.30173" lon="5.63564">
        <ele>325</ele>
        <time>2011-05-12T10:31:14Z</time>
      </trkpt>
      <trkpt lat="45.30161" lon="5.63554">
        <ele>325</ele>
        <time>2011-05-12T10:31:19Z</time>
      </trkpt>
      <trkpt lat="45.30148" lon="5.63541">
        <ele>325</ele>
        <time>2011-05-12T10:31:24Z</time>
      </trkpt>
      <trkpt lat="45.30133" lon="5.63528">
        <ele>327</ele>
        <time>2011-05-12T10:31:29Z</time>
      </trkpt>
      <trkpt lat="45.30115" lon="5.63517">
        <ele>327</ele>
        <time>2011-05-12T10:31:34Z</time>
      </trkpt>
      <trkpt lat="45.30096" lon="5.63508">
        <ele>329</ele>
        <time>2011-05-12T10:31:39Z</time>
      </trkpt>
      <trkpt lat="45.30078" lon="5.63495">
        <ele>331</ele>
        <time>2011-05-12T10:31:44Z</time>
      </trkpt>
      <trkpt lat="45.30082" lon="5.63479">
        <ele>329</ele>
        <time>2011-05-12T10:31:49Z</time>
      </trkpt>
      <trkpt lat="45.30101" lon="5.63489">
        <ele>331</ele>
        <time>2011-05-12T10:31:54Z</time>
      </trkpt>
      <trkpt lat="45.30117" lon="5.635">
        <ele>332</ele>
        <time>2011-05-12T10:31:59Z</time>
      </trkpt>
      <trkpt lat="45.30134" lon="5.63507">
        <ele>333</ele>
        <time>2011-05-12T10:32:04Z</time>
      </trkpt>
      <trkpt lat="45.30151" lon="5.63511">
        <ele>334</ele>
        <time>2011-05-12T10:32:09Z</time>
      </trkpt>
      <trkpt lat="45.30168" lon="5.63514">
        <ele>334</ele>
        <time>2011-05-12T10:32:14Z</time>
      </trkpt>
      <trkpt lat="45.30185" lon="5.63516">
        <ele>335</ele>
        <time>2011-05-12T10:32:19Z</time>
      </trkpt>
      <trkpt lat="45.30202" lon="5.63522">
        <ele>335</ele>
        <time>2011-05-12T10:32:24Z</time>
      </trkpt>
      <trkpt lat="45.30216" lon="5.63528">
        <ele>336</ele>
        <time>2011-05-12T10:32:29Z</time>
      </trkpt>
      <trkpt lat="45.3023" lon="5.63533">
        <ele>338</ele>
        <time>2011-05-12T10:32:34Z</time>
      </trkpt>
      <trkpt lat="45.30244" lon="5.63538">
        <ele>340</ele>
        <time>2011-05-12T10:32:39Z</time>
      </trkpt>
      <trkpt lat="45.30259" lon="5.63542">
        <ele>341</ele>
        <time>2011-05-12T10:32:44Z</time>
      </trkpt>
      <trkpt lat="45.30273" lon="5.63543">
        <ele>342</ele>
        <time>2011-05-12T10:32:49Z</time>
      </trkpt>
      <trkpt lat="45.30288" lon="5.63542">
        <ele>342</ele>
        <time>2011-05-12T10:32:54Z</time>
      </trkpt>
      <trkpt lat="45.30302" lon="5.63539">
        <ele>344</ele>
        <time>2011-05-12T10:32:59Z</time>
      </trkpt>
      <trkpt lat="45.30316" lon="5.63537">
        <ele>345</ele>
        <time>2011-05-12T10:33:04Z</time>
      </trkpt>
      <trkpt lat="45.30329" lon="5.63535">
        <ele>346</ele>
        <time>2011-05-12T10:33:09Z</time>
      </trkpt>
      <trkpt lat="45.30342" lon="5.63534">
        <ele>347</ele>
        <time>2011-05-12T10:33:14Z</time>
      </trkpt>
      <trkpt lat="45.30355" lon="5.63535">
        <ele>349</ele>
        <time>2011-05-12T10:33:19Z</time>
      </trkpt>
      <trkpt lat="45.30368" lon="5.63537">
        <ele>350</ele>
        <time>2011-05-12T10:33:24Z</time>
      </trkpt>
      <trkpt lat="45.30381" lon="5.63539">
        <ele>352</ele>
        <time>2011-05-12T10:33:29Z</time>
      </trkpt>
      <trkpt lat="45.30391" lon="5.63547">
        <ele>355</ele>
        <time>2011-05-12T10:33:34Z</time>
      </trkpt>
      <trkpt lat="45.304" lon="5.63559">
        <ele>356</ele>
        <time>2011-05-12T10:33:39Z</time>
      </trkpt>
      <trkpt lat="45.3041" lon="5.63572">
        <ele>357</ele>
        <time>2011-05-12T10:33:44Z</time>
      </trkpt>
      <trkpt lat="45.3042" lon="5.63583">
        <ele>358</ele>
        <time>2011-05-12T10:33:49Z</time>
      </trkpt>
      <trkpt lat="45.30431" lon="5.63592">
        <ele>360</ele>
        <time>2011-05-12T10:33:54Z</time>
      </trkpt>
      <trkpt lat="45.30444" lon="5.63598">
        <ele>361</ele>
        <time>2011-05-12T10:33:59Z</time>
      </trkpt>
      <trkpt lat="45.30457" lon="5.63602">
        <ele>361</ele>
        <time>2011-05-12T10:34:04Z</time>
      </trkpt>
      <trkpt lat="45.3047" lon="5.63602">
        <ele>361</ele>
        <time>2011-05-12T10:34:09Z</time>
      </trkpt>
      <trkpt lat="45.30483" lon="5.63601">
        <ele>362</ele>
        <time>2011-05-12T10:34:14Z</time>
      </trkpt>
      <trkpt lat="45.30496" lon="5.63598">
        <ele>363</ele>
        <time>2011-05-12T10:34:19Z</time>
      </trkpt>
      <trkpt lat="45.30509" lon="5.63598">
        <ele>364</ele>
        <time>2011-05-12T10:34:24Z</time>
      </trkpt>
      <trkpt lat="45.30521" lon="5.63601">
        <ele>365</ele>
        <time>2011-05-12T10:34:29Z</time>
      </trkpt>
      <trkpt lat="45.30534" lon="5.63607">
        <ele>367</ele>
        <time>2011-05-12T10:34:34Z</time>
      </trkpt>
      <trkpt lat="45.30544" lon="5.63617">
        <ele>368</ele>
        <time>2011-05-12T10:34:39Z</time>
      </trkpt>
      <trkpt lat="45.30555" lon="5.63624">
        <ele>370</ele>
        <time>2011-05-12T10:34:44Z</time>
      </trkpt>
      <trkpt lat="45.30567" lon="5.63629">
        <ele>372</ele>
        <time>2011-05-12T10:34:49Z</time>
      </trkpt>
      <trkpt lat="45.30579" lon="5.63631">
        <ele>373</ele>
        <time>2011-05-12T10:34:54Z</time>
      </trkpt>
      <trkpt lat="45.30592" lon="5.6363">
        <ele>374</ele>
        <time>2011-05-12T10:34:59Z</time>
      </trkpt>
      <trkpt lat="45.30605" lon="5.63629">
        <ele>374</ele>
        <time>2011-05-12T10:35:04Z</time>
      </trkpt>
      <trkpt lat="45.30617" lon="5.6363">
        <ele>374</ele>
        <time>2011-05-12T10:35:09Z</time>
      </trkpt>
      <trkpt lat="45.30629" lon="5.63635">
        <ele>378</ele>
        <time>2011-05-12T10:35:14Z</time>
      </trkpt>
      <trkpt lat="45.30637" lon="5.63645">
        <ele>378</ele>
        <time>2011-05-12T10:35:19Z</time>
      </trkpt>
      <trkpt lat="45.30642" lon="5.63658">
        <ele>380</ele>
        <time>2011-05-12T10:35:24Z</time>
      </trkpt>
      <trkpt lat="45.30647" lon="5.63673">
        <ele>381</ele>
        <time>2011-05-12T10:35:29Z</time>
      </trkpt>
      <trkpt lat="45.30654" lon="5.63686">
        <ele>381</ele>
        <time>2011-05-12T10:35:34Z</time>
      </trkpt>
      <trkpt lat="45.30664" lon="5.63695">
        <ele>382</ele>
        <time>2011-05-12T10:35:39Z</time>
      </trkpt>
      <trkpt lat="45.30675" lon="5.63701">
        <ele>385</ele>
        <time>2011-05-12T10:35:44Z</time>
      </trkpt>
      <trkpt lat="45.30688" lon="5.63706">
        <ele>387</ele>
        <time>2011-05-12T10:35:49Z</time>
      </trkpt>
      <trkpt lat="45.30699" lon="5.63712">
        <ele>389</ele>
        <time>2011-05-12T10:35:54Z</time>
      </trkpt>
      <trkpt lat="45.30709" lon="5.63718">
        <ele>388</ele>
        <time>2011-05-12T10:35:59Z</time>
      </trkpt>
      <trkpt lat="45.30721" lon="5.63724">
        <ele>389</ele>
        <time>2011-05-12T10:36:04Z</time>
      </trkpt>
      <trkpt lat="45.30733" lon="5.6373">
        <ele>390</ele>
        <time>2011-05-12T10:36:09Z</time>
      </trkpt>
      <trkpt lat="45.30744" lon="5.63736">
        <ele>392</ele>
        <time>2011-05-12T10:36:14Z</time>
      </trkpt>
      <trkpt lat="45.30755" lon="5.63743">
        <ele>393</ele>
        <time>2011-05-12T10:36:19Z</time>
      </trkpt>
      <trkpt lat="45.30766" lon="5.63749">
        <ele>394</ele>
        <time>2011-05-12T10:36:24Z</time>
      </trkpt>
      <trkpt lat="45.30777" lon="5.63756">
        <ele>396</ele>
        <time>2011-05-12T10:36:29Z</time>
      </trkpt>
      <trkpt lat="45.30786" lon="5.63766">
        <ele>397</ele>
        <time>2011-05-12T10:36:34Z</time>
      </trkpt>
      <trkpt lat="45.30794" lon="5.63776">
        <ele>397</ele>
        <time>2011-05-12T10:36:39Z</time>
      </trkpt>
      <trkpt lat="45.30801" lon="5.63789">
        <ele>399</ele>
        <time>2011-05-12T10:36:44Z</time>
      </trkpt>
      <trkpt lat="45.30807" lon="5.63803">
        <ele>400</ele>
        <time>2011-05-12T10:36:49Z</time>
      </trkpt>
      <trkpt lat="45.30814" lon="5.63816">
        <ele>402</ele>
        <time>2011-05-12T10:36:54Z</time>
      </trkpt>
      <trkpt lat="45.30821" lon="5.63827">
        <ele>404</ele>
        <time>2011-05-12T10:36:59Z</time>
      </trkpt>
      <trkpt lat="45.30828" lon="5.63839">
        <ele>403</ele>
        <time>2011-05-12T10:37:04Z</time>
      </trkpt>
      <trkpt lat="45.30835" lon="5.63849">
        <ele>404</ele>
        <time>2011-05-12T10:37:09Z</time>
      </trkpt>
      <trkpt lat="45.30843" lon="5.63861">
        <ele>406</ele>
        <time>2011-05-12T10:37:14Z</time>
      </trkpt>
      <trkpt lat="45.30851" lon="5.63873">
        <ele>407</ele>
        <time>2011-05-12T10:37:19Z</time>
      </trkpt>
      <trkpt lat="45.30858" lon="5.63885">
        <ele>408</ele>
        <time>2011-05-12T10:37:24Z</time>
      </trkpt>
      <trkpt lat="45.30866" lon="5.63897">
        <ele>409</ele>
        <time>2011-05-12T10:37:29Z</time>
      </trkpt>
      <trkpt lat="45.30874" lon="5.63908">
        <ele>411</ele>
        <time>2011-05-12T10:37:34Z</time>
      </trkpt>
      <trkpt lat="45.30882" lon="5.6392">
        <ele>413</ele>
        <time>2011-05-12T10:37:39Z</time>
      </trkpt>
      <trkpt lat="45.30889" lon="5.63932">
        <ele>415</ele>
        <time>2011-05-12T10:37:44Z</time>
      </trkpt>
      <trkpt lat="45.30896" lon="5.63944">
        <ele>416</ele>
        <time>2011-05-12T10:37:49Z</time>
      </trkpt>
      <trkpt lat="45.30904" lon="5.63955">
        <ele>418</ele>
        <time>2011-05-12T10:37:54Z</time>
      </trkpt>
      <trkpt lat="45.3091" lon="5.63967">
        <ele>418</ele>
        <time>2011-05-12T10:37:59Z</time>
      </trkpt>
      <trkpt lat="45.30918" lon="5.63977">
        <ele>418</ele>
        <time>2011-05-12T10:38:04Z</time>
      </trkpt>
      <trkpt lat="45.30926" lon="5.63986">
        <ele>420</ele>
        <time>2011-05-12T10:38:09Z</time>
      </trkpt>
      <trkpt lat="45.30935" lon="5.63996">
        <ele>421</ele>
        <time>2011-05-12T10:38:14Z</time>
      </trkpt>
      <trkpt lat="45.30945" lon="5.64004">
        <ele>421</ele>
        <time>2011-05-12T10:38:19Z</time>
      </trkpt>
      <trkpt lat="45.30956" lon="5.64012">
        <ele>423</ele>
        <time>2011-05-12T10:38:24Z</time>
      </trkpt>
      <trkpt lat="45.30965" lon="5.6402">
        <ele>423</ele>
        <time>2011-05-12T10:38:29Z</time>
      </trkpt>
      <trkpt lat="45.30972" lon="5.64032">
        <ele>422</ele>
        <time>2011-05-12T10:38:34Z</time>
      </trkpt>
      <trkpt lat="45.30977" lon="5.64045">
        <ele>422</ele>
        <time>2011-05-12T10:38:39Z</time>
      </trkpt>
      <trkpt lat="45.30981" lon="5.64061">
        <ele>423</ele>
        <time>2011-05-12T10:38:44Z</time>
      </trkpt>
      <trkpt lat="45.30984" lon="5.64077">
        <ele>423</ele>
        <time>2011-05-12T10:38:49Z</time>
      </trkpt>
      <trkpt lat="45.30985" lon="5.64094">
        <ele>424</ele>
        <time>2011-05-12T10:38:54Z</time>
      </trkpt>
      <trkpt lat="45.30983" lon="5.6411">
        <ele>425</ele>
        <time>2011-05-12T10:38:59Z</time>
      </trkpt>
      <trkpt lat="45.30976" lon="5.64122">
        <ele>427</ele>
        <time>2011-05-12T10:39:04Z</time>
      </trkpt>
      <trkpt lat="45.30968" lon="5.64133">
        <ele>429</ele>
        <time>2011-05-12T10:39:09Z</time>
      </trkpt>
      <trkpt lat="45.3096" lon="5.64144">
        <ele>434</ele>
        <time>2011-05-12T10:39:14Z</time>
      </trkpt>
      <trkpt lat="45.30954" lon="5.64152">
        <ele>441</ele>
        <time>2011-05-12T10:39:19Z</time>
      </trkpt>
      <trkpt lat="45.30947" lon="5.64165">
        <ele>444</ele>
        <time>2011-05-12T10:39:24Z</time>
      </trkpt>
      <trkpt lat="45.30941" lon="5.6418">
        <ele>444</ele>
        <time>2011-05-12T10:39:29Z</time>
      </trkpt>
      <trkpt lat="45.30935" lon="5.64194">
        <ele>443</ele>
        <time>2011-05-12T10:39:34Z</time>
      </trkpt>
      <trkpt lat="45.30929" lon="5.64207">
        <ele>444</ele>
        <time>2011-05-12T10:39:39Z</time>
      </trkpt>
      <trkpt lat="45.30923" lon="5.64221">
        <ele>446</ele>
        <time>2011-05-12T10:39:44Z</time>
      </trkpt>
      <trkpt lat="45.30919" lon="5.64237">
        <ele>443</ele>
        <time>2011-05-12T10:39:49Z</time>
      </trkpt>
      <trkpt lat="45.30916" lon="5.64254">
        <ele>441</ele>
        <time>2011-05-12T10:39:54Z</time>
      </trkpt>
      <trkpt lat="45.30916" lon="5.6427">
        <ele>443</ele>
        <time>2011-05-12T10:39:59Z</time>
      </trkpt>
      <trkpt lat="45.3092" lon="5.64288">
        <ele>444</ele>
        <time>2011-05-12T10:40:04Z</time>
      </trkpt>
      <trkpt lat="45.30925" lon="5.64303">
        <ele>447</ele>
        <time>2011-05-12T10:40:09Z</time>
      </trkpt>
      <trkpt lat="45.30931" lon="5.64317">
        <ele>448</ele>
        <time>2011-05-12T10:40:14Z</time>
      </trkpt>
      <trkpt lat="45.30941" lon="5.64328">
        <ele>448</ele>
        <time>2011-05-12T10:40:19Z</time>
      </trkpt>
      <trkpt lat="45.30951" lon="5.64338">
        <ele>449</ele>
        <time>2011-05-12T10:40:24Z</time>
      </trkpt>
      <trkpt lat="45.3096" lon="5.64347">
        <ele>450</ele>
        <time>2011-05-12T10:40:29Z</time>
      </trkpt>
      <trkpt lat="45.30971" lon="5.64354">
        <ele>450</ele>
        <time>2011-05-12T10:40:34Z</time>
      </trkpt>
      <trkpt lat="45.30981" lon="5.64361">
        <ele>452</ele>
        <time>2011-05-12T10:40:39Z</time>
      </trkpt>
      <trkpt lat="45.30993" lon="5.64366">
        <ele>453</ele>
        <time>2011-05-12T10:40:44Z</time>
      </trkpt>
      <trkpt lat="45.31003" lon="5.64374">
        <ele>455</ele>
        <time>2011-05-12T10:40:49Z</time>
      </trkpt>
      <trkpt lat="45.3101" lon="5.64386">
        <ele>456</ele>
        <time>2011-05-12T10:40:54Z</time>
      </trkpt>
      <trkpt lat="45.31016" lon="5.64399">
        <ele>457</ele>
        <time>2011-05-12T10:40:59Z</time>
      </trkpt>
      <trkpt lat="45.3102" lon="5.64414">
        <ele>458</ele>
        <time>2011-05-12T10:41:04Z</time>
      </trkpt>
      <trkpt lat="45.31024" lon="5.64429">
        <ele>459</ele>
        <time>2011-05-12T10:41:09Z</time>
      </trkpt>
      <trkpt lat="45.31027" lon="5.64443">
        <ele>461</ele>
        <time>2011-05-12T10:41:14Z</time>
      </trkpt>
      <trkpt lat="45.31031" lon="5.64458">
        <ele>462</ele>
        <time>2011-05-12T10:41:19Z</time>
      </trkpt>
      <trkpt lat="45.31034" lon="5.64472">
        <ele>463</ele>
        <time>2011-05-12T10:41:24Z</time>
      </trkpt>
      <trkpt lat="45.31038" lon="5.64487">
        <ele>464</ele>
        <time>2011-05-12T10:41:29Z</time>
      </trkpt>
      <trkpt lat="45.31041" lon="5.64502">
        <ele>465</ele>
        <time>2011-05-12T10:41:34Z</time>
      </trkpt>
      <trkpt lat="45.31045" lon="5.64517">
        <ele>465</ele>
        <time>2011-05-12T10:41:39Z</time>
      </trkpt>
      <trkpt lat="45.31051" lon="5.6453">
        <ele>467</ele>
        <time>2011-05-12T10:41:44Z</time>
      </trkpt>
      <trkpt lat="45.31055" lon="5.64545">
        <ele>468</ele>
        <time>2011-05-12T10:41:49Z</time>
      </trkpt>
      <trkpt lat="45.31063" lon="5.64559">
        <ele>471</ele>
        <time>2011-05-12T10:41:54Z</time>
      </trkpt>
      <trkpt lat="45.31069" lon="5.64575">
        <ele>475</ele>
        <time>2011-05-12T10:41:59Z</time>
      </trkpt>
      <trkpt lat="45.31076" lon="5.6459">
        <ele>475</ele>
        <time>2011-05-12T10:42:04Z</time>
      </trkpt>
      <trkpt lat="45.31083" lon="5.64605">
        <ele>475</ele>
        <time>2011-05-12T10:42:09Z</time>
      </trkpt>
      <trkpt lat="45.3109" lon="5.6462">
        <ele>475</ele>
        <time>2011-05-12T10:42:14Z</time>
      </trkpt>
      <trkpt lat="45.31099" lon="5.64635">
        <ele>476</ele>
        <time>2011-05-12T10:42:19Z</time>
      </trkpt>
      <trkpt lat="45.31106" lon="5.6465">
        <ele>476</ele>
        <time>2011-05-12T10:42:24Z</time>
      </trkpt>
      <trkpt lat="45.31114" lon="5.64665">
        <ele>476</ele>
        <time>2011-05-12T10:42:29Z</time>
      </trkpt>
      <trkpt lat="45.31122" lon="5.6468">
        <ele>476</ele>
        <time>2011-05-12T10:42:34Z</time>
      </trkpt>
      <trkpt lat="45.3113" lon="5.64695">
        <ele>477</ele>
        <time>2011-05-12T10:42:39Z</time>
      </trkpt>
      <trkpt lat="45.31139" lon="5.64711">
        <ele>478</ele>
        <time>2011-05-12T10:42:44Z</time>
      </trkpt>
      <trkpt lat="45.31148" lon="5.64727">
        <ele>479</ele>
        <time>2011-05-12T10:42:49Z</time>
      </trkpt>
      <trkpt lat="45.31158" lon="5.64742">
        <ele>479</ele>
        <time>2011-05-12T10:42:54Z</time>
      </trkpt>
      <trkpt lat="45.3117" lon="5.64754">
        <ele>480</ele>
        <time>2011-05-12T10:42:59Z</time>
      </trkpt>
      <trkpt lat="45.31182" lon="5.64766">
        <ele>481</ele>
        <time>2011-05-12T10:43:04Z</time>
      </trkpt>
      <trkpt lat="45.31195" lon="5.64778">
        <ele>481</ele>
        <time>2011-05-12T10:43:09Z</time>
      </trkpt>
      <trkpt lat="45.31208" lon="5.64788">
        <ele>481</ele>
        <time>2011-05-12T10:43:14Z</time>
      </trkpt>
      <trkpt lat="45.31222" lon="5.64798">
        <ele>482</ele>
        <time>2011-05-12T10:43:19Z</time>
      </trkpt>
      <trkpt lat="45.31238" lon="5.64808">
        <ele>481</ele>
        <time>2011-05-12T10:43:24Z</time>
      </trkpt>
      <trkpt lat="45.31254" lon="5.64819">
        <ele>483</ele>
        <time>2011-05-12T10:43:29Z</time>
      </trkpt>
      <trkpt lat="45.3127" lon="5.64825">
        <ele>484</ele>
        <time>2011-05-12T10:43:34Z</time>
      </trkpt>
      <trkpt lat="45.31289" lon="5.64831">
        <ele>485</ele>
        <time>2011-05-12T10:43:39Z</time>
      </trkpt>
      <trkpt lat="45.3131" lon="5.64836">
        <ele>485</ele>
        <time>2011-05-12T10:43:44Z</time>
      </trkpt>
      <trkpt lat="45.31329" lon="5.64845">
        <ele>484</ele>
        <time>2011-05-12T10:43:49Z</time>
      </trkpt>
      <trkpt lat="45.31345" lon="5.64867">
        <ele>484</ele>
        <time>2011-05-12T10:43:54Z</time>
      </trkpt>
      <trkpt lat="45.31359" lon="5.64893">
        <ele>484</ele>
        <time>2011-05-12T10:43:59Z</time>
      </trkpt>
      <trkpt lat="45.31374" lon="5.64919">
        <ele>484</ele>
        <time>2011-05-12T10:44:04Z</time>
      </trkpt>
      <trkpt lat="45.31387" lon="5.64944">
        <ele>484</ele>
        <time>2011-05-12T10:44:09Z</time>
      </trkpt>
      <trkpt lat="45.31399" lon="5.64971">
        <ele>485</ele>
        <time>2011-05-12T10:44:14Z</time>
      </trkpt>
      <trkpt lat="45.31411" lon="5.64998">
        <ele>485</ele>
        <time>2011-05-12T10:44:19Z</time>
      </trkpt>
      <trkpt lat="45.31429" lon="5.65018">
        <ele>485</ele>
        <time>2011-05-12T10:44:24Z</time>
      </trkpt>
      <trkpt lat="45.3145" lon="5.65033">
        <ele>485</ele>
        <time>2011-05-12T10:44:29Z</time>
      </trkpt>
      <trkpt lat="45.3147" lon="5.65047">
        <ele>485</ele>
        <time>2011-05-12T10:44:34Z</time>
      </trkpt>
      <trkpt lat="45.3149" lon="5.6506">
        <ele>487</ele>
        <time>2011-05-12T10:44:39Z</time>
      </trkpt>
      <trkpt lat="45.3151" lon="5.65073">
        <ele>487</ele>
        <time>2011-05-12T10:44:44Z</time>
      </trkpt>
      <trkpt lat="45.31531" lon="5.65084">
        <ele>487</ele>
        <time>2011-05-12T10:44:49Z</time>
      </trkpt>
      <trkpt lat="45.3155" lon="5.65097">
        <ele>488</ele>
        <time>2011-05-12T10:44:54Z</time>
      </trkpt>
      <trkpt lat="45.31567" lon="5.65107">
        <ele>488</ele>
        <time>2011-05-12T10:44:59Z</time>
      </trkpt>
      <trkpt lat="45.31571" lon="5.65092">
        <ele>488</ele>
        <time>2011-05-12T10:45:04Z</time>
      </trkpt>
      <trkpt lat="45.31554" lon="5.65083">
        <ele>489</ele>
        <time>2011-05-12T10:45:09Z</time>
      </trkpt>
      <trkpt lat="45.31537" lon="5.65072">
        <ele>492</ele>
        <time>2011-05-12T10:45:14Z</time>
      </trkpt>
      <trkpt lat="45.31523" lon="5.65056">
        <ele>493</ele>
        <time>2011-05-12T10:45:19Z</time>
      </trkpt>
      <trkpt lat="45.31511" lon="5.65037">
        <ele>495</ele>
        <time>2011-05-12T10:45:24Z</time>
      </trkpt>
      <trkpt lat="45.31498" lon="5.65019">
        <ele>496</ele>
        <time>2011-05-12T10:45:29Z</time>
      </trkpt>
      <trkpt lat="45.31486" lon="5.65002">
        <ele>496</ele>
        <time>2011-05-12T10:45:34Z</time>
      </trkpt>
      <trkpt lat="45.31473" lon="5.64986">
        <ele>497</ele>
        <time>2011-05-12T10:45:39Z</time>
      </trkpt>
      <trkpt lat="45.3146" lon="5.6497">
        <ele>497</ele>
        <time>2011-05-12T10:45:44Z</time>
      </trkpt>
      <trkpt lat="45.3145" lon="5.6495">
        <ele>498</ele>
        <time>2011-05-12T10:45:49Z</time>
      </trkpt>
      <trkpt lat="45.31442" lon="5.64929">
        <ele>498</ele>
        <time>2011-05-12T10:45:54Z</time>
      </trkpt>
      <trkpt lat="45.31434" lon="5.64907">
        <ele>499</ele>
        <time>2011-05-12T10:45:59Z</time>
      </trkpt>
      <trkpt lat="45.31428" lon="5.64882">
        <ele>498</ele>
        <time>2011-05-12T10:46:04Z</time>
      </trkpt>
      <trkpt lat="45.31429" lon="5.64861">
        <ele>499</ele>
        <time>2011-05-12T10:46:09Z</time>
      </trkpt>
      <trkpt lat="45.3144" lon="5.64853">
        <ele>499</ele>
        <time>2011-05-12T10:46:14Z</time>
      </trkpt>
      <trkpt lat="45.31449" lon="5.64868">
        <ele>500</ele>
        <time>2011-05-12T10:46:19Z</time>
      </trkpt>
      <trkpt lat="45.31456" lon="5.64883">
        <ele>500</ele>
        <time>2011-05-12T10:46:24Z</time>
      </trkpt>
      <trkpt lat="45.31467" lon="5.64895">
        <ele>502</ele>
        <time>2011-05-12T10:46:29Z</time>
      </trkpt>
      <trkpt lat="45.31473" lon="5.64905">
        <ele>504</ele>
        <time>2011-05-12T10:46:34Z</time>
      </trkpt>
      <trkpt lat="45.3148" lon="5.64916">
        <ele>506</ele>
        <time>2011-05-12T10:46:39Z</time>
      </trkpt>
      <trkpt lat="45.31485" lon="5.64898">
        <ele>507</ele>
        <time>2011-05-12T10:46:54Z</time>
      </trkpt>
      <trkpt lat="45.31481" lon="5.64877">
        <ele>509</ele>
        <time>2011-05-12T10:47:04Z</time>
      </trkpt>
      <trkpt lat="45.31478" lon="5.64858">
        <ele>511</ele>
        <time>2011-05-12T10:47:14Z</time>
      </trkpt>
      <trkpt lat="45.31487" lon="5.64843">
        <ele>514</ele>
        <time>2011-05-12T10:47:24Z</time>
      </trkpt>
      <trkpt lat="45.31491" lon="5.64827">
        <ele>514</ele>
        <time>2011-05-12T10:47:34Z</time>
      </trkpt>
      <trkpt lat="45.31488" lon="5.64812">
        <ele>519</ele>
        <time>2011-05-12T10:47:44Z</time>
      </trkpt>
      <trkpt lat="45.31479" lon="5.64792">
        <ele>522</ele>
        <time>2011-05-12T10:51:09Z</time>
      </trkpt>
      <trkpt lat="45.31465" lon="5.64779">
        <ele>527</ele>
        <time>2011-05-12T10:51:19Z</time>
      </trkpt>
      <trkpt lat="45.31454" lon="5.64759">
        <ele>529</ele>
        <time>2011-05-12T10:51:29Z</time>
      </trkpt>
      <trkpt lat="45.31446" lon="5.64748">
        <ele>530</ele>
        <time>2011-05-12T10:51:34Z</time>
      </trkpt>
      <trkpt lat="45.31438" lon="5.64736">
        <ele>529</ele>
        <time>2011-05-12T10:51:39Z</time>
      </trkpt>
      <trkpt lat="45.31432" lon="5.64724">
        <ele>530</ele>
        <time>2011-05-12T10:51:44Z</time>
      </trkpt>
      <trkpt lat="45.31421" lon="5.64714">
        <ele>530</ele>
        <time>2011-05-12T10:51:49Z</time>
      </trkpt>
      <trkpt lat="45.31411" lon="5.64706">
        <ele>531</ele>
        <time>2011-05-12T10:51:54Z</time>
      </trkpt>
      <trkpt lat="45.31403" lon="5.64698">
        <ele>534</ele>
        <time>2011-05-12T10:51:59Z</time>
      </trkpt>
      <trkpt lat="45.31394" lon="5.64691">
        <ele>538</ele>
        <time>2011-05-12T10:52:04Z</time>
      </trkpt>
      <trkpt lat="45.31387" lon="5.64684">
        <ele>543</ele>
        <time>2011-05-12T10:52:09Z</time>
      </trkpt>
      <trkpt lat="45.31382" lon="5.64673">
        <ele>544</ele>
        <time>2011-05-12T10:52:14Z</time>
      </trkpt>
      <trkpt lat="45.31376" lon="5.64663">
        <ele>546</ele>
        <time>2011-05-12T10:52:19Z</time>
      </trkpt>
      <trkpt lat="45.31372" lon="5.64651">
        <ele>547</ele>
        <time>2011-05-12T10:52:24Z</time>
      </trkpt>
      <trkpt lat="45.31362" lon="5.64646">
        <ele>546</ele>
        <time>2011-05-12T10:52:29Z</time>
      </trkpt>
      <trkpt lat="45.31354" lon="5.64639">
        <ele>548</ele>
        <time>2011-05-12T10:52:34Z</time>
      </trkpt>
      <trkpt lat="45.3135" lon="5.64627">
        <ele>548</ele>
        <time>2011-05-12T10:52:39Z</time>
      </trkpt>
      <trkpt lat="45.31342" lon="5.64604">
        <ele>548</ele>
        <time>2011-05-12T10:52:49Z</time>
      </trkpt>
      <trkpt lat="45.31336" lon="5.64593">
        <ele>548</ele>
        <time>2011-05-12T10:52:54Z</time>
      </trkpt>
      <trkpt lat="45.31331" lon="5.64582">
        <ele>547</ele>
        <time>2011-05-12T10:52:59Z</time>
      </trkpt>
      <trkpt lat="45.31327" lon="5.6457">
        <ele>547</ele>
        <time>2011-05-12T10:53:04Z</time>
      </trkpt>
      <trkpt lat="45.31321" lon="5.64559">
        <ele>546</ele>
        <time>2011-05-12T10:53:09Z</time>
      </trkpt>
      <trkpt lat="45.31319" lon="5.64546">
        <ele>547</ele>
        <time>2011-05-12T10:53:14Z</time>
      </trkpt>
      <trkpt lat="45.31316" lon="5.64534">
        <ele>548</ele>
        <time>2011-05-12T10:53:19Z</time>
      </trkpt>
      <trkpt lat="45.31316" lon="5.6452">
        <ele>550</ele>
        <time>2011-05-12T10:53:24Z</time>
      </trkpt>
      <trkpt lat="45.31316" lon="5.64508">
        <ele>550</ele>
        <time>2011-05-12T10:53:29Z</time>
      </trkpt>
      <trkpt lat="45.31315" lon="5.64485">
        <ele>554</ele>
        <time>2011-05-12T10:53:39Z</time>
      </trkpt>
      <trkpt lat="45.31312" lon="5.64467">
        <ele>557</ele>
        <time>2011-05-12T10:53:49Z</time>
      </trkpt>
      <trkpt lat="45.31313" lon="5.64455">
        <ele>558</ele>
        <time>2011-05-12T10:53:54Z</time>
      </trkpt>
      <trkpt lat="45.31312" lon="5.64434">
        <ele>560</ele>
        <time>2011-05-12T10:54:04Z</time>
      </trkpt>
      <trkpt lat="45.31315" lon="5.64415">
        <ele>562</ele>
        <time>2011-05-12T10:54:14Z</time>
      </trkpt>
      <trkpt lat="45.31318" lon="5.64392">
        <ele>565</ele>
        <time>2011-05-12T10:54:24Z</time>
      </trkpt>
      <trkpt lat="45.31324" lon="5.6437">
        <ele>566</ele>
        <time>2011-05-12T10:54:34Z</time>
      </trkpt>
      <trkpt lat="45.31322" lon="5.64348">
        <ele>569</ele>
        <time>2011-05-12T10:54:44Z</time>
      </trkpt>
      <trkpt lat="45.31314" lon="5.64328">
        <ele>569</ele>
        <time>2011-05-12T10:54:54Z</time>
      </trkpt>
      <trkpt lat="45.31312" lon="5.64309">
        <ele>573</ele>
        <time>2011-05-12T10:55:04Z</time>
      </trkpt>
      <trkpt lat="45.31307" lon="5.64293">
        <ele>577</ele>
        <time>2011-05-12T10:55:14Z</time>
      </trkpt>
      <trkpt lat="45.31303" lon="5.64278">
        <ele>580</ele>
        <time>2011-05-12T10:55:24Z</time>
      </trkpt>
      <trkpt lat="45.31305" lon="5.6426">
        <ele>586</ele>
        <time>2011-05-12T10:55:44Z</time>
      </trkpt>
      <trkpt lat="45.3131" lon="5.64249">
        <ele>588</ele>
        <time>2011-05-12T10:55:54Z</time>
      </trkpt>
      <trkpt lat="45.31316" lon="5.64239">
        <ele>592</ele>
        <time>2011-05-12T10:56:04Z</time>
      </trkpt>
      <trkpt lat="45.31318" lon="5.64223">
        <ele>595</ele>
        <time>2011-05-12T10:56:14Z</time>
      </trkpt>
      <trkpt lat="45.31324" lon="5.64214">
        <ele>595</ele>
        <time>2011-05-12T10:56:24Z</time>
      </trkpt>
      <trkpt lat="45.3133" lon="5.64207">
        <ele>595</ele>
        <time>2011-05-12T10:56:34Z</time>
      </trkpt>
      <trkpt lat="45.31337" lon="5.64193">
        <ele>597</ele>
        <time>2011-05-12T10:56:49Z</time>
      </trkpt>
      <trkpt lat="45.31339" lon="5.6418">
        <ele>598</ele>
        <time>2011-05-12T10:56:59Z</time>
      </trkpt>
      <trkpt lat="45.31345" lon="5.64166">
        <ele>598</ele>
        <time>2011-05-12T10:57:14Z</time>
      </trkpt>
      <trkpt lat="45.31352" lon="5.64151">
        <ele>600</ele>
        <time>2011-05-12T10:57:29Z</time>
      </trkpt>
      <trkpt lat="45.31355" lon="5.64139">
        <ele>603</ele>
        <time>2011-05-12T10:57:39Z</time>
      </trkpt>
      <trkpt lat="45.31357" lon="5.64126">
        <ele>607</ele>
        <time>2011-05-12T10:57:49Z</time>
      </trkpt>
      <trkpt lat="45.31355" lon="5.64112">
        <ele>609</ele>
        <time>2011-05-12T10:57:59Z</time>
      </trkpt>
      <trkpt lat="45.31357" lon="5.64099">
        <ele>611</ele>
        <time>2011-05-12T10:58:09Z</time>
      </trkpt>
      <trkpt lat="45.31358" lon="5.64079">
        <ele>611</ele>
        <time>2011-05-12T10:58:19Z</time>
      </trkpt>
      <trkpt lat="45.31356" lon="5.64067">
        <ele>612</ele>
        <time>2011-05-12T10:58:29Z</time>
      </trkpt>
      <trkpt lat="45.31353" lon="5.64054">
        <ele>612</ele>
        <time>2011-05-12T10:58:39Z</time>
      </trkpt>
      <trkpt lat="45.3135" lon="5.64042">
        <ele>614</ele>
        <time>2011-05-12T10:58:49Z</time>
      </trkpt>
      <trkpt lat="45.3135" lon="5.64024">
        <ele>617</ele>
        <time>2011-05-12T10:59:04Z</time>
      </trkpt>
      <trkpt lat="45.31351" lon="5.64005">
        <ele>622</ele>
        <time>2011-05-12T10:59:19Z</time>
      </trkpt>
      <trkpt lat="45.3135" lon="5.63993">
        <ele>626</ele>
        <time>2011-05-12T10:59:29Z</time>
      </trkpt>
      <trkpt lat="45.31344" lon="5.63982">
        <ele>625</ele>
        <time>2011-05-12T10:59:39Z</time>
      </trkpt>
      <trkpt lat="45.31341" lon="5.63969">
        <ele>629</ele>
        <time>2011-05-12T10:59:49Z</time>
      </trkpt>
      <trkpt lat="45.3134" lon="5.63953">
        <ele>630</ele>
        <time>2011-05-12T10:59:59Z</time>
      </trkpt>
      <trkpt lat="45.31336" lon="5.63933">
        <ele>627</ele>
        <time>2011-05-12T11:00:14Z</time>
      </trkpt>
      <trkpt lat="45.31335" lon="5.63912">
        <ele>627</ele>
        <time>2011-05-12T11:00:24Z</time>
      </trkpt>
      <trkpt lat="45.31334" lon="5.63891">
        <ele>630</ele>
        <time>2011-05-12T11:00:34Z</time>
      </trkpt>
      <trkpt lat="45.31327" lon="5.63871">
        <ele>631</ele>
        <time>2011-05-12T11:00:44Z</time>
      </trkpt>
      <trkpt lat="45.31319" lon="5.63851">
        <ele>634</ele>
        <time>2011-05-12T11:00:54Z</time>
      </trkpt>
      <trkpt lat="45.31314" lon="5.63837">
        <ele>637</ele>
        <time>2011-05-12T11:01:04Z</time>
      </trkpt>
      <trkpt lat="45.31304" lon="5.63811">
        <ele>630</ele>
        <time>2011-05-12T11:05:59Z</time>
      </trkpt>
      <trkpt lat="45.31292" lon="5.63782">
        <ele>626</ele>
        <time>2011-05-12T11:06:04Z</time>
      </trkpt>
      <trkpt lat="45.31274" lon="5.63753">
        <ele>628</ele>
        <time>2011-05-12T11:06:09Z</time>
      </trkpt>
      <trkpt lat="45.31269" lon="5.6374">
        <ele>630</ele>
        <time>2011-05-12T11:06:14Z</time>
      </trkpt>
      <trkpt lat="45.31256" lon="5.63721">
        <ele>631</ele>
        <time>2011-05-12T11:06:24Z</time>
      </trkpt>
      <trkpt lat="45.31246" lon="5.63714">
        <ele>632</ele>
        <time>2011-05-12T11:06:29Z</time>
      </trkpt>
      <trkpt lat="45.31238" lon="5.637">
        <ele>634</ele>
        <time>2011-05-12T11:06:34Z</time>
      </trkpt>
      <trkpt lat="45.31224" lon="5.63688">
        <ele>630</ele>
        <time>2011-05-12T11:06:39Z</time>
      </trkpt>
      <trkpt lat="45.31202" lon="5.63666">
        <ele>627</ele>
        <time>2011-05-12T11:06:44Z</time>
      </trkpt>
      <trkpt lat="45.31184" lon="5.63635">
        <ele>624</ele>
        <time>2011-05-12T11:06:49Z</time>
      </trkpt>
      <trkpt lat="45.31166" lon="5.63604">
        <ele>614</ele>
        <time>2011-05-12T11:06:54Z</time>
      </trkpt>
      <trkpt lat="45.31144" lon="5.63579">
        <ele>607</ele>
        <time>2011-05-12T11:06:59Z</time>
      </trkpt>
      <trkpt lat="45.31155" lon="5.6354">
        <ele>605</ele>
        <time>2011-05-12T11:07:04Z</time>
      </trkpt>
      <trkpt lat="45.31152" lon="5.63507">
        <ele>608</ele>
        <time>2011-05-12T11:07:09Z</time>
      </trkpt>
      <trkpt lat="45.31148" lon="5.63494">
        <ele>610</ele>
        <time>2011-05-12T11:07:14Z</time>
      </trkpt>
      <trkpt lat="45.31141" lon="5.63474">
        <ele>615</ele>
        <time>2011-05-12T11:07:24Z</time>
      </trkpt>
      <trkpt lat="45.31134" lon="5.63464">
        <ele>618</ele>
        <time>2011-05-12T11:07:29Z</time>
      </trkpt>
      <trkpt lat="45.31123" lon="5.63454">
        <ele>621</ele>
        <time>2011-05-12T11:07:39Z</time>
      </trkpt>
      <trkpt lat="45.31115" lon="5.63447">
        <ele>619</ele>
        <time>2011-05-12T11:08:19Z</time>
      </trkpt>
      <trkpt lat="45.31089" lon="5.63421">
        <ele>617</ele>
        <time>2011-05-12T11:08:34Z</time>
      </trkpt>
      <trkpt lat="45.31069" lon="5.63404">
        <ele>611</ele>
        <time>2011-05-12T11:08:39Z</time>
      </trkpt>
      <trkpt lat="45.31041" lon="5.63383">
        <ele>602</ele>
        <time>2011-05-12T11:08:44Z</time>
      </trkpt>
      <trkpt lat="45.31006" lon="5.6337">
        <ele>595</ele>
        <time>2011-05-12T11:08:49Z</time>
      </trkpt>
      <trkpt lat="45.31001" lon="5.63333">
        <ele>589</ele>
        <time>2011-05-12T11:08:54Z</time>
      </trkpt>
      <trkpt lat="45.31008" lon="5.63321">
        <ele>588</ele>
        <time>2011-05-12T11:08:59Z</time>
      </trkpt>
      <trkpt lat="45.31004" lon="5.63298">
        <ele>586</ele>
        <time>2011-05-12T11:09:29Z</time>
      </trkpt>
      <trkpt lat="45.30984" lon="5.63283">
        <ele>578</ele>
        <time>2011-05-12T11:09:34Z</time>
      </trkpt>
      <trkpt lat="45.30967" lon="5.63279">
        <ele>569</ele>
        <time>2011-05-12T11:09:39Z</time>
      </trkpt>
      <trkpt lat="45.3096" lon="5.6327">
        <ele>568</ele>
        <time>2011-05-12T11:09:59Z</time>
      </trkpt>
      <trkpt lat="45.30935" lon="5.63256">
        <ele>558</ele>
        <time>2011-05-12T11:10:09Z</time>
      </trkpt>
      <trkpt lat="45.30923" lon="5.63251">
        <ele>551</ele>
        <time>2011-05-12T11:10:14Z</time>
      </trkpt>
      <trkpt lat="45.30909" lon="5.63256">
        <ele>544</ele>
        <time>2011-05-12T11:10:19Z</time>
      </trkpt>
      <trkpt lat="45.30891" lon="5.63258">
        <ele>537</ele>
        <time>2011-05-12T11:10:24Z</time>
      </trkpt>
      <trkpt lat="45.30872" lon="5.63261">
        <ele>533</ele>
        <time>2011-05-12T11:10:29Z</time>
      </trkpt>
      <trkpt lat="45.30861" lon="5.63263">
        <ele>531</ele>
        <time>2011-05-12T11:10:34Z</time>
      </trkpt>
      <trkpt lat="45.3085" lon="5.63264">
        <ele>529</ele>
        <time>2011-05-12T11:10:39Z</time>
      </trkpt>
      <trkpt lat="45.30837" lon="5.63255">
        <ele>523</ele>
        <time>2011-05-12T11:10:44Z</time>
      </trkpt>
      <trkpt lat="45.30829" lon="5.63245">
        <ele>517</ele>
        <time>2011-05-12T11:10:49Z</time>
      </trkpt>
      <trkpt lat="45.30816" lon="5.63238">
        <ele>514</ele>
        <time>2011-05-12T11:10:54Z</time>
      </trkpt>
      <trkpt lat="45.30804" lon="5.63233">
        <ele>511</ele>
        <time>2011-05-12T11:10:59Z</time>
      </trkpt>
      <trkpt lat="45.30795" lon="5.63225">
        <ele>506</ele>
        <time>2011-05-12T11:11:04Z</time>
      </trkpt>
      <trkpt lat="45.30771" lon="5.6321">
        <ele>503</ele>
        <time>2011-05-12T11:11:09Z</time>
      </trkpt>
      <trkpt lat="45.30753" lon="5.632">
        <ele>497</ele>
        <time>2011-05-12T11:11:14Z</time>
      </trkpt>
      <trkpt lat="45.30767" lon="5.63189">
        <ele>502</ele>
        <time>2011-05-12T11:12:14Z</time>
      </trkpt>
      <trkpt lat="45.30782" lon="5.63178">
        <ele>503</ele>
        <time>2011-05-12T11:12:24Z</time>
      </trkpt>
      <trkpt lat="45.30794" lon="5.63159">
        <ele>500</ele>
        <time>2011-05-12T11:12:29Z</time>
      </trkpt>
      <trkpt lat="45.30803" lon="5.63134">
        <ele>499</ele>
        <time>2011-05-12T11:13:09Z</time>
      </trkpt>
      <trkpt lat="45.30818" lon="5.63136">
        <ele>496</ele>
        <time>2011-05-12T11:13:14Z</time>
      </trkpt>
      <trkpt lat="45.30828" lon="5.63144">
        <ele>494</ele>
        <time>2011-05-12T11:13:39Z</time>
      </trkpt>
      <trkpt lat="45.30837" lon="5.63139">
        <ele>491</ele>
        <time>2011-05-12T11:13:44Z</time>
      </trkpt>
      <trkpt lat="45.30851" lon="5.63138">
        <ele>487</ele>
        <time>2011-05-12T11:13:49Z</time>
      </trkpt>
      <trkpt lat="45.30861" lon="5.63134">
        <ele>483</ele>
        <time>2011-05-12T11:13:54Z</time>
      </trkpt>
      <trkpt lat="45.30869" lon="5.63129">
        <ele>479</ele>
        <time>2011-05-12T11:13:59Z</time>
      </trkpt>
      <trkpt lat="45.30858" lon="5.63119">
        <ele>471</ele>
        <time>2011-05-12T11:14:39Z</time>
      </trkpt>
      <trkpt lat="45.30876" lon="5.63112">
        <ele>466</ele>
        <time>2011-05-12T11:14:44Z</time>
      </trkpt>
      <trkpt lat="45.30889" lon="5.63111">
        <ele>460</ele>
        <time>2011-05-12T11:14:49Z</time>
      </trkpt>
      <trkpt lat="45.309" lon="5.63104">
        <ele>454</ele>
        <time>2011-05-12T11:14:54Z</time>
      </trkpt>
      <trkpt lat="45.30916" lon="5.63094">
        <ele>449</ele>
        <time>2011-05-12T11:14:59Z</time>
      </trkpt>
      <trkpt lat="45.30936" lon="5.63089">
        <ele>445</ele>
        <time>2011-05-12T11:15:04Z</time>
      </trkpt>
      <trkpt lat="45.3096" lon="5.63085">
        <ele>442</ele>
        <time>2011-05-12T11:15:09Z</time>
      </trkpt>
      <trkpt lat="45.30985" lon="5.63084">
        <ele>439</ele>
        <time>2011-05-12T11:15:14Z</time>
      </trkpt>
      <trkpt lat="45.30997" lon="5.63093">
        <ele>442</ele>
        <time>2011-05-12T11:15:19Z</time>
      </trkpt>
      <trkpt lat="45.31007" lon="5.63103">
        <ele>448</ele>
        <time>2011-05-12T11:15:34Z</time>
      </trkpt>
      <trkpt lat="45.31013" lon="5.63114">
        <ele>453</ele>
        <time>2011-05-12T11:15:49Z</time>
      </trkpt>
      <trkpt lat="45.31021" lon="5.63122">
        <ele>456</ele>
        <time>2011-05-12T11:23:49Z</time>
      </trkpt>
      <trkpt lat="45.31012" lon="5.63122">
        <ele>458</ele>
        <time>2011-05-12T11:24:24Z</time>
      </trkpt>
      <trkpt lat="45.31002" lon="5.63114">
        <ele>460</ele>
        <time>2011-05-12T11:25:24Z</time>
      </trkpt>
      <trkpt lat="45.31012" lon="5.63121">
        <ele>456</ele>
        <time>2011-05-12T11:33:14Z</time>
      </trkpt>
      <trkpt lat="45.31021" lon="5.63134">
        <ele>457</ele>
        <time>2011-05-12T11:33:29Z</time>
      </trkpt>
      <trkpt lat="45.31028" lon="5.63141">
        <ele>458</ele>
        <time>2011-05-12T11:33:39Z</time>
      </trkpt>
      <trkpt lat="45.31038" lon="5.63148">
        <ele>461</ele>
        <time>2011-05-12T11:33:54Z</time>
      </trkpt>
      <trkpt lat="45.31051" lon="5.63162">
        <ele>463</ele>
        <time>2011-05-12T11:34:09Z</time>
      </trkpt>
      <trkpt lat="45.31065" lon="5.63174">
        <ele>466</ele>
        <time>2011-05-12T11:34:19Z</time>
      </trkpt>
      <trkpt lat="45.31077" lon="5.63183">
        <ele>468</ele>
        <time>2011-05-12T11:34:29Z</time>
      </trkpt>
      <trkpt lat="45.31086" lon="5.63187">
        <ele>468</ele>
        <time>2011-05-12T11:34:34Z</time>
      </trkpt>
      <trkpt lat="45.31097" lon="5.63196">
        <ele>471</ele>
        <time>2011-05-12T11:34:49Z</time>
      </trkpt>
      <trkpt lat="45.31115" lon="5.63203">
        <ele>473</ele>
        <time>2011-05-12T11:35:04Z</time>
      </trkpt>
      <trkpt lat="45.31123" lon="5.63206">
        <ele>474</ele>
        <time>2011-05-12T11:35:09Z</time>
      </trkpt>
      <trkpt lat="45.31135" lon="5.63206">
        <ele>474</ele>
        <time>2011-05-12T11:35:14Z</time>
      </trkpt>
      <trkpt lat="45.31155" lon="5.63199">
        <ele>471</ele>
        <time>2011-05-12T11:35:19Z</time>
      </trkpt>
      <trkpt lat="45.31176" lon="5.63182">
        <ele>473</ele>
        <time>2011-05-12T11:35:24Z</time>
      </trkpt>
      <trkpt lat="45.31178" lon="5.63169">
        <ele>467</ele>
        <time>2011-05-12T11:35:29Z</time>
      </trkpt>
      <trkpt lat="45.31171" lon="5.63179">
        <ele>469</ele>
        <time>2011-05-12T11:36:19Z</time>
      </trkpt>
      <trkpt lat="45.31166" lon="5.63168">
        <ele>466</ele>
        <time>2011-05-12T11:37:19Z</time>
      </trkpt>
      <trkpt lat="45.31161" lon="5.63153">
        <ele>463</ele>
        <time>2011-05-12T11:37:44Z</time>
      </trkpt>
      <trkpt lat="45.31147" lon="5.63133">
        <ele>457</ele>
        <time>2011-05-12T11:37:49Z</time>
      </trkpt>
      <trkpt lat="45.31141" lon="5.63114">
        <ele>452</ele>
        <time>2011-05-12T11:37:54Z</time>
      </trkpt>
      <trkpt lat="45.31132" lon="5.63096">
        <ele>445</ele>
        <time>2011-05-12T11:37:59Z</time>
      </trkpt>
      <trkpt lat="45.31123" lon="5.63072">
        <ele>440</ele>
        <time>2011-05-12T11:38:04Z</time>
      </trkpt>
      <trkpt lat="45.31119" lon="5.63056">
        <ele>433</ele>
        <time>2011-05-12T11:38:09Z</time>
      </trkpt>
      <trkpt lat="45.3111" lon="5.6305">
        <ele>416</ele>
        <time>2011-05-12T11:38:24Z</time>
      </trkpt>
      <trkpt lat="45.31103" lon="5.63039">
        <ele>413</ele>
        <time>2011-05-12T11:38:29Z</time>
      </trkpt>
      <trkpt lat="45.31101" lon="5.63025">
        <ele>409</ele>
        <time>2011-05-12T11:39:34Z</time>
      </trkpt>
      <trkpt lat="45.31096" lon="5.63006">
        <ele>406</ele>
        <time>2011-05-12T11:39:39Z</time>
      </trkpt>
      <trkpt lat="45.31094" lon="5.62991">
        <ele>399</ele>
        <time>2011-05-12T11:39:49Z</time>
      </trkpt>
      <trkpt lat="45.31091" lon="5.62976">
        <ele>393</ele>
        <time>2011-05-12T11:40:29Z</time>
      </trkpt>
      <trkpt lat="45.31087" lon="5.6296">
        <ele>390</ele>
        <time>2011-05-12T11:40:34Z</time>
      </trkpt>
      <trkpt lat="45.31084" lon="5.62942">
        <ele>388</ele>
        <time>2011-05-12T11:41:09Z</time>
      </trkpt>
      <trkpt lat="45.31079" lon="5.62922">
        <ele>383</ele>
        <time>2011-05-12T11:41:14Z</time>
      </trkpt>
      <trkpt lat="45.31073" lon="5.62895">
        <ele>380</ele>
        <time>2011-05-12T11:41:19Z</time>
      </trkpt>
      <trkpt lat="45.31073" lon="5.62876">
        <ele>376</ele>
        <time>2011-05-12T11:41:24Z</time>
      </trkpt>
      <trkpt lat="45.31073" lon="5.62859">
        <ele>367</ele>
        <time>2011-05-12T11:41:34Z</time>
      </trkpt>
      <trkpt lat="45.31069" lon="5.6287">
        <ele>359</ele>
        <time>2011-05-12T11:42:04Z</time>
      </trkpt>
      <trkpt lat="45.31057" lon="5.62867">
        <ele>350</ele>
        <time>2011-05-12T11:42:29Z</time>
      </trkpt>
      <trkpt lat="45.31048" lon="5.62872">
        <ele>345</ele>
        <time>2011-05-12T11:42:54Z</time>
      </trkpt>
      <trkpt lat="45.31038" lon="5.62861">
        <ele>338</ele>
        <time>2011-05-12T11:43:14Z</time>
      </trkpt>
      <trkpt lat="45.3103" lon="5.62849">
        <ele>331</ele>
        <time>2011-05-12T11:43:19Z</time>
      </trkpt>
      <trkpt lat="45.31021" lon="5.62843">
        <ele>319</ele>
        <time>2011-05-12T11:43:59Z</time>
      </trkpt>
      <trkpt lat="45.31011" lon="5.62832">
        <ele>315</ele>
        <time>2011-05-12T11:44:14Z</time>
      </trkpt>
      <trkpt lat="45.30996" lon="5.62818">
        <ele>309</ele>
        <time>2011-05-12T11:44:19Z</time>
      </trkpt>
      <trkpt lat="45.30984" lon="5.62806">
        <ele>303</ele>
        <time>2011-05-12T11:44:24Z</time>
      </trkpt>
      <trkpt lat="45.30975" lon="5.62801">
        <ele>297</ele>
        <time>2011-05-12T11:44:29Z</time>
      </trkpt>
      <trkpt lat="45.30963" lon="5.62791">
        <ele>289</ele>
        <time>2011-05-12T11:44:34Z</time>
      </trkpt>
      <trkpt lat="45.30956" lon="5.62784">
        <ele>282</ele>
        <time>2011-05-12T11:44:39Z</time>
      </trkpt>
      <trkpt lat="45.30947" lon="5.62783">
        <ele>275</ele>
        <time>2011-05-12T11:45:19Z</time>
      </trkpt>
      <trkpt lat="45.30939" lon="5.62791">
        <ele>275</ele>
        <time>2011-05-12T11:46:39Z</time>
      </trkpt>
      <trkpt lat="45.30925" lon="5.62792">
        <ele>273</ele>
        <time>2011-05-12T11:46:49Z</time>
      </trkpt>
      <trkpt lat="45.30905" lon="5.6279">
        <ele>265</ele>
        <time>2011-05-12T11:46:54Z</time>
      </trkpt>
      <trkpt lat="45.30884" lon="5.62779">
        <ele>257</ele>
        <time>2011-05-12T11:46:59Z</time>
      </trkpt>
      <trkpt lat="45.30865" lon="5.62772">
        <ele>251</ele>
        <time>2011-05-12T11:47:04Z</time>
      </trkpt>
      <trkpt lat="45.30851" lon="5.62766">
        <ele>244</ele>
        <time>2011-05-12T11:47:09Z</time>
      </trkpt>
      <trkpt lat="45.30838" lon="5.62756">
        <ele>237</ele>
        <time>2011-05-12T11:47:14Z</time>
      </trkpt>
      <trkpt lat="45.3082" lon="5.62743">
        <ele>233</ele>
        <time>2011-05-12T11:47:19Z</time>
      </trkpt>
      <trkpt lat="45.30799" lon="5.62731">
        <ele>219</ele>
        <time>2011-05-12T11:47:24Z</time>
      </trkpt>
      <trkpt lat="45.30781" lon="5.62733">
        <ele>213</ele>
        <time>2011-05-12T11:47:29Z</time>
      </trkpt>
      <trkpt lat="45.30773" lon="5.62711">
        <ele>205</ele>
        <time>2011-05-12T11:48:14Z</time>
      </trkpt>
      <trkpt lat="45.3077" lon="5.62665">
        <ele>200</ele>
        <time>2011-05-12T11:48:19Z</time>
      </trkpt>
      <trkpt lat="45.30769" lon="5.62633">
        <ele>199</ele>
        <time>2011-05-12T11:48:24Z</time>
      </trkpt>
      <trkpt lat="45.30749" lon="5.62627">
        <ele>198</ele>
        <time>2011-05-12T11:48:29Z</time>
      </trkpt>
      <trkpt lat="45.30724" lon="5.62626">
        <ele>197</ele>
        <time>2011-05-12T11:48:34Z</time>
      </trkpt>
      <trkpt lat="45.307" lon="5.62635">
        <ele>197</ele>
        <time>2011-05-12T11:48:39Z</time>
      </trkpt>
      <trkpt lat="45.30677" lon="5.62646">
        <ele>197</ele>
        <time>2011-05-12T11:48:44Z</time>
      </trkpt>
      <trkpt lat="45.30652" lon="5.62661">
        <ele>197</ele>
        <time>2011-05-12T11:48:49Z</time>
      </trkpt>
      <trkpt lat="45.30628" lon="5.62679">
        <ele>197</ele>
        <time>2011-05-12T11:48:54Z</time>
      </trkpt>
      <trkpt lat="45.30604" lon="5.62691">
        <ele>197</ele>
        <time>2011-05-12T11:48:59Z</time>
      </trkpt>
      <trkpt lat="45.30579" lon="5.62698">
        <ele>197</ele>
        <time>2011-05-12T11:49:04Z</time>
      </trkpt>
      <trkpt lat="45.30554" lon="5.62701">
        <ele>198</ele>
        <time>2011-05-12T11:49:09Z</time>
      </trkpt>
      <trkpt lat="45.30528" lon="5.62703">
        <ele>198</ele>
        <time>2011-05-12T11:49:14Z</time>
      </trkpt>
      <trkpt lat="45.30502" lon="5.62705">
        <ele>198</ele>
        <time>2011-05-12T11:49:19Z</time>
      </trkpt>
      <trkpt lat="45.30476" lon="5.6271">
        <ele>199</ele>
        <time>2011-05-12T11:49:24Z</time>
      </trkpt>
      <trkpt lat="45.30449" lon="5.62715">
        <ele>199</ele>
        <time>2011-05-12T11:49:29Z</time>
      </trkpt>
      <trkpt lat="45.30423" lon="5.62723">
        <ele>200</ele>
        <time>2011-05-12T11:49:34Z</time>
      </trkpt>
      <trkpt lat="45.30397" lon="5.62732">
        <ele>201</ele>
        <time>2011-05-12T11:49:39Z</time>
      </trkpt>
      <trkpt lat="45.30372" lon="5.62739">
        <ele>201</ele>
        <time>2011-05-12T11:49:44Z</time>
      </trkpt>
      <trkpt lat="45.3035" lon="5.62746">
        <ele>202</ele>
        <time>2011-05-12T11:49:49Z</time>
      </trkpt>
      <trkpt lat="45.30328" lon="5.62752">
        <ele>202</ele>
        <time>2011-05-12T11:49:54Z</time>
      </trkpt>
      <trkpt lat="45.30306" lon="5.62758">
        <ele>203</ele>
        <time>2011-05-12T11:49:59Z</time>
      </trkpt>
      <trkpt lat="45.30285" lon="5.62765">
        <ele>204</ele>
        <time>2011-05-12T11:50:04Z</time>
      </trkpt>
      <trkpt lat="45.30262" lon="5.62765">
        <ele>204</ele>
        <time>2011-05-12T11:50:09Z</time>
      </trkpt>
      <trkpt lat="45.30243" lon="5.62763">
        <ele>205</ele>
        <time>2011-05-12T11:50:14Z</time>
      </trkpt>
      <trkpt lat="45.30226" lon="5.62767">
        <ele>205</ele>
        <time>2011-05-12T11:50:19Z</time>
      </trkpt>
      <trkpt lat="45.30212" lon="5.62785">
        <ele>206</ele>
        <time>2011-05-12T11:50:24Z</time>
      </trkpt>
      <trkpt lat="45.30198" lon="5.62802">
        <ele>207</ele>
        <time>2011-05-12T11:50:29Z</time>
      </trkpt>
      <trkpt lat="45.30182" lon="5.62813">
        <ele>207</ele>
        <time>2011-05-12T11:50:34Z</time>
      </trkpt>
      <trkpt lat="45.30167" lon="5.62832">
        <ele>208</ele>
        <time>2011-05-12T11:50:39Z</time>
      </trkpt>
      <trkpt lat="45.30151" lon="5.62852">
        <ele>208</ele>
        <time>2011-05-12T11:50:44Z</time>
      </trkpt>
      <trkpt lat="45.30136" lon="5.62873">
        <ele>208</ele>
        <time>2011-05-12T11:50:49Z</time>
      </trkpt>
      <trkpt lat="45.30122" lon="5.62894">
        <ele>209</ele>
        <time>2011-05-12T11:50:54Z</time>
      </trkpt>
      <trkpt lat="45.30108" lon="5.62914">
        <ele>210</ele>
        <time>2011-05-12T11:50:59Z</time>
      </trkpt>
      <trkpt lat="45.30093" lon="5.62933">
        <ele>213</ele>
        <time>2011-05-12T11:51:04Z</time>
      </trkpt>
      <trkpt lat="45.30077" lon="5.62953">
        <ele>213</ele>
        <time>2011-05-12T11:51:09Z</time>
      </trkpt>
      <trkpt lat="45.30064" lon="5.62974">
        <ele>213</ele>
        <time>2011-05-12T11:51:14Z</time>
      </trkpt>
      <trkpt lat="45.30051" lon="5.62993">
        <ele>215</ele>
        <time>2011-05-12T11:51:19Z</time>
      </trkpt>
      <trkpt lat="45.30038" lon="5.63014">
        <ele>217</ele>
        <time>2011-05-12T11:51:24Z</time>
      </trkpt>
      <trkpt lat="45.30023" lon="5.63031">
        <ele>218</ele>
        <time>2011-05-12T11:51:29Z</time>
      </trkpt>
      <trkpt lat="45.3001" lon="5.63049">
        <ele>218</ele>
        <time>2011-05-12T11:51:34Z</time>
      </trkpt>
      <trkpt lat="45.29998" lon="5.63066">
        <ele>218</ele>
        <time>2011-05-12T11:51:39Z</time>
      </trkpt>
      <trkpt lat="45.29985" lon="5.63083">
        <ele>220</ele>
        <time>2011-05-12T11:51:44Z</time>
      </trkpt>
      <trkpt lat="45.29973" lon="5.631">
        <ele>221</ele>
        <time>2011-05-12T11:51:49Z</time>
      </trkpt>
      <trkpt lat="45.2996" lon="5.63117">
        <ele>221</ele>
        <time>2011-05-12T11:51:54Z</time>
      </trkpt>
      <trkpt lat="45.29948" lon="5.63134">
        <ele>222</ele>
        <time>2011-05-12T11:51:59Z</time>
      </trkpt>
      <trkpt lat="45.29935" lon="5.6315">
        <ele>223</ele>
        <time>2011-05-12T11:52:04Z</time>
      </trkpt>
      <trkpt lat="45.29924" lon="5.63169">
        <ele>223</ele>
        <time>2011-05-12T11:52:09Z</time>
      </trkpt>
      <trkpt lat="45.29912" lon="5.63184">
        <ele>227</ele>
        <time>2011-05-12T11:52:14Z</time>
      </trkpt>
      <trkpt lat="45.29901" lon="5.63199">
        <ele>227</ele>
        <time>2011-05-12T11:52:19Z</time>
      </trkpt>
      <trkpt lat="45.29893" lon="5.6321">
        <ele>229</ele>
        <time>2011-05-12T11:52:24Z</time>
      </trkpt>
      <trkpt lat="45.29885" lon="5.63221">
        <ele>230</ele>
        <time>2011-05-12T11:52:29Z</time>
      </trkpt>
      <trkpt lat="45.29878" lon="5.63212">
        <ele>230</ele>
        <time>2011-05-12T11:52:34Z</time>
      </trkpt>
      <trkpt lat="45.29876" lon="5.63186">
        <ele>229</ele>
        <time>2011-05-12T11:52:39Z</time>
      </trkpt>
      <trkpt lat="45.2987" lon="5.63153">
        <ele>228</ele>
        <time>2011-05-12T11:52:44Z</time>
      </trkpt>
      <trkpt lat="45.29846" lon="5.63157">
        <ele>227</ele>
        <time>2011-05-12T11:52:49Z</time>
      </trkpt>
      <trkpt lat="45.29822" lon="5.63168">
        <ele>228</ele>
        <time>2011-05-12T11:52:54Z</time>
      </trkpt>
      <trkpt lat="45.29799" lon="5.6318">
        <ele>228</ele>
        <time>2011-05-12T11:52:59Z</time>
      </trkpt>
      <trkpt lat="45.29776" lon="5.63194">
        <ele>229</ele>
        <time>2011-05-12T11:53:04Z</time>
      </trkpt>
      <trkpt lat="45.29753" lon="5.63204">
        <ele>230</ele>
        <time>2011-05-12T11:53:09Z</time>
      </trkpt>
      <trkpt lat="45.2973" lon="5.63215">
        <ele>230</ele>
        <time>2011-05-12T11:53:14Z</time>
      </trkpt>
      <trkpt lat="45.29712" lon="5.63225">
        <ele>231</ele>
        <time>2011-05-12T11:53:19Z</time>
      </trkpt>
      <trkpt lat="45.29694" lon="5.63229">
        <ele>232</ele>
        <time>2011-05-12T11:54:24Z</time>
      </trkpt>
      <trkpt lat="45.29678" lon="5.63237">
        <ele>233</ele>
        <time>2011-05-12T11:54:29Z</time>
      </trkpt>
      <trkpt lat="45.29661" lon="5.63244">
        <ele>231</ele>
        <time>2011-05-12T11:54:34Z</time>
      </trkpt>
      <trkpt lat="45.29644" lon="5.6325">
        <ele>232</ele>
        <time>2011-05-12T11:54:39Z</time>
      </trkpt>
      <trkpt lat="45.2963" lon="5.63253">
        <ele>232</ele>
        <time>2011-05-12T11:54:44Z</time>
      </trkpt>
      <trkpt lat="45.29615" lon="5.63224">
        <ele>230</ele>
        <time>2011-05-12T11:54:54Z</time>
      </trkpt>
      <trkpt lat="45.29608" lon="5.63185">
        <ele>229</ele>
        <time>2011-05-12T11:54:59Z</time>
      </trkpt>
      <trkpt lat="45.29602" lon="5.63141">
        <ele>227</ele>
        <time>2011-05-12T11:55:04Z</time>
      </trkpt>
      <trkpt lat="45.29593" lon="5.6311">
        <ele>226</ele>
        <time>2011-05-12T11:55:09Z</time>
      </trkpt>
      <trkpt lat="45.29583" lon="5.6308">
        <ele>225</ele>
        <time>2011-05-12T11:55:14Z</time>
      </trkpt>
      <trkpt lat="45.29574" lon="5.63051">
        <ele>224</ele>
        <time>2011-05-12T11:55:19Z</time>
      </trkpt>
      <trkpt lat="45.29558" lon="5.63059">
        <ele>224</ele>
        <time>2011-05-12T11:55:24Z</time>
      </trkpt>
      <trkpt lat="45.29538" lon="5.63071">
        <ele>224</ele>
        <time>2011-05-12T11:55:29Z</time>
      </trkpt>
      <trkpt lat="45.29521" lon="5.63083">
        <ele>225</ele>
        <time>2011-05-12T11:55:34Z</time>
      </trkpt>
      <trkpt lat="45.29506" lon="5.63091">
        <ele>226</ele>
        <time>2011-05-12T11:55:39Z</time>
      </trkpt>
      <trkpt lat="45.29492" lon="5.63085">
        <ele>225</ele>
        <time>2011-05-12T11:55:44Z</time>
      </trkpt>
      <trkpt lat="45.29476" lon="5.6306">
        <ele>225</ele>
        <time>2011-05-12T11:55:49Z</time>
      </trkpt>
      <trkpt lat="45.29466" lon="5.63065">
        <ele>223</ele>
        <time>2011-05-12T11:55:54Z</time>
      </trkpt>
      <trkpt lat="45.29454" lon="5.63089">
        <ele>223</ele>
        <time>2011-05-12T11:55:59Z</time>
      </trkpt>
      <trkpt lat="45.29431" lon="5.63108">
        <ele>221</ele>
        <time>2011-05-12T11:56:04Z</time>
      </trkpt>
      <trkpt lat="45.29411" lon="5.63119">
        <ele>221</ele>
        <time>2011-05-12T11:56:09Z</time>
      </trkpt>
      <trkpt lat="45.29387" lon="5.63132">
        <ele>220</ele>
        <time>2011-05-12T11:56:14Z</time>
      </trkpt>
      <trkpt lat="45.29359" lon="5.63148">
        <ele>219</ele>
        <time>2011-05-12T11:56:19Z</time>
      </trkpt>
      <trkpt lat="45.29342" lon="5.63165">
        <ele>218</ele>
        <time>2011-05-12T11:56:24Z</time>
      </trkpt>
      <trkpt lat="45.29331" lon="5.63175">
        <ele>217</ele>
        <time>2011-05-12T11:56:29Z</time>
      </trkpt>
      <trkpt lat="45.29314" lon="5.63188">
        <ele>217</ele>
        <time>2011-05-12T11:56:34Z</time>
      </trkpt>
      <trkpt lat="45.29295" lon="5.63205">
        <ele>216</ele>
        <time>2011-05-12T11:56:39Z</time>
      </trkpt>
      <trkpt lat="45.29274" lon="5.63223">
        <ele>216</ele>
        <time>2011-05-12T11:56:44Z</time>
      </trkpt>
      <trkpt lat="45.29256" lon="5.63248">
        <ele>215</ele>
        <time>2011-05-12T11:56:49Z</time>
      </trkpt>
      <trkpt lat="45.29237" lon="5.63276">
        <ele>215</ele>
        <time>2011-05-12T11:56:54Z</time>
      </trkpt>
      <trkpt lat="45.29219" lon="5.63305">
        <ele>214</ele>
        <time>2011-05-12T11:56:59Z</time>
      </trkpt>
      <trkpt lat="45.29203" lon="5.63339">
        <ele>213</ele>
        <time>2011-05-12T11:57:04Z</time>
      </trkpt>
      <trkpt lat="45.29187" lon="5.63377">
        <ele>212</ele>
        <time>2011-05-12T11:57:09Z</time>
      </trkpt>
      <trkpt lat="45.29174" lon="5.63413">
        <ele>213</ele>
        <time>2011-05-12T11:57:14Z</time>
      </trkpt>
      <trkpt lat="45.29165" lon="5.63436">
        <ele>213</ele>
        <time>2011-05-12T11:57:19Z</time>
      </trkpt>
      <trkpt lat="45.29161" lon="5.63436">
        <ele>213</ele>
        <time>2011-05-12T11:58:09Z</time>
      </trkpt>
    </trkseg>
  </trk>
</gpx>